El Dorado International Airport

SKBO · Cundinamarca, Colombia

METAR history SKBO · El Dorado International Airport

Below you see METARs of the last few days. Select a year to browse through older METARs, from the year 2007 onwards.

December 8, 2022

Time Code Weather Temp. Visibility Ceiling Wind METAR/SPECI
01:00
V
11 °C 10 km+ 7,000 ft 280° 280° 3 kt METAR SKBO 080600Z 28003KT 9999 FEW015 SCT020 BKN070 11/10 Q1026 NOSIG
01:00
V
11 °C 10 km+ 7,000 ft 280° 280° 3 kt METAR SKBO 080600Z 28003KT 9999 FEW015 SCT020 BKN070 11/10 Q1026 NOSIG RMK A3029
00:00
V
12 °C 10 km+ 7,000 ft 260° 260° 4 kt METAR SKBO 080500Z 26004KT 9999 FEW015 BKN070 12/11 Q1026 NOSIG RMK A3031

December 7, 2022

Time Code Weather Temp. Visibility Ceiling Wind METAR/SPECI
23:00
V
12 °C 10 km+ 7,000 ft 250° 250° 3 kt METAR SKBO 080400Z 25003KT 9999 SCT017 BKN070 12/10 Q1026 NOSIG RMK A3032
22:00
V
11 °C 10 km+ 7,000 ft 020° 020° 3 kt METAR SKBO 080300Z 02003KT 9999 FEW003 SCT017 BKN070 11/10 Q1027 NOSIG RMK A3034
21:00
V
12 °C 10 km+ 7,000 ft Var Var 2 kt METAR SKBO 080200Z VRB02KT 9999 SCT010 BKN070 12/11 Q1026 NOSIG RMK A3032
20:00
V
13 °C 10 km+ 7,000 ft 260° 260° 3 kt METAR SKBO 080100Z 26003KT 9999 FEW010 SCT020 BKN070 13/11 Q1026 NOSIG RMK A3031
19:00
I
13 °C 1.9 km 8,200 ft Var Var 3 kt METAR SKBO 080000Z AUTO VRB03KT 9999 1900 FEW030/// OVC082/// 13/11 Q1025
18:00
V
14 °C 8 km 7,000 ft 250° 250° 6 kt METAR SKBO 072300Z 25006KT 8000 SCT015 BKN070 14/11 Q1024 NOSIG RMK HZ A3026
17:00
V
14 °C 8 km 7,000 ft 330° 330° 5 kt METAR SKBO 072200Z 33005KT 8000 SCT015 BKN070 14/12 Q1024 NOSIG RMK HZ A3025
16:00
M
14 °C 8 km 1,700 ft 310° 310° 6 kt METAR SKBO 072100Z 31006KT 8000 VCSH BKN017 SCT080 14/11 Q1024 NOSIG RMK VCSH/SE A3025
15:00
V
15 °C 9 km 8,000 ft 260° 260° 4 kt METAR SKBO 072000Z 26004KT 9000 VCSH SCT020TCU BKN080 15/11 Q1024 RETS NOSIG RMK TCU VCSH/NW A3026
14:00
V
15 °C 9 km 8,000 ft 230° 230° 8 kt METAR SKBO 071900Z 23008KT 9000 VCSH SCT020CB BKN080 15/11 Q1025 NOSIG RMK CB VCSH/N A3028
13:00
V
15 °C 10 km+ 8,000 ft 240° 240° 6 kt METAR SKBO 071800Z 24006KT 9999 VCSH SCT020TCU BKN080 15/11 Q1026 NOSIG RMK TCU VCSH/SE A3029
12:00
V
16 °C 8 km 7,000 ft 290° 290° 6 kt METAR SKBO 071700Z 29006KT 8000 VCSH SCT017TCU BKN070 16/11 Q1026 BECMG FM1800 TSRA RMK TCU VCSH/SE A3031
11:00
M
16 °C 8 km 1,700 ft Var Var 2 kt METAR SKBO 071600Z VRB02KT 8000 BKN017 SCT070 16/11 Q1027 NOSIG RMK HZ A3034
10:00
M
14 °C 8 km 1,700 ft 350° 350° 4 kt METAR SKBO 071500Z 35004KT 330V060 8000 BKN017 BKN070 14/11 Q1028 NOSIG RMK HZ A3037
09:00
M
12 °C 8 km 1,700 ft Var Var 2 kt METAR SKBO 071400Z VRB02KT 8000 BKN017 BKN070 12/11 Q1028 NOSIG RMK HZ A3036
08:00
M
12 °C 8 km 1,700 ft 040° 040° 6 kt METAR SKBO 071300Z 04006KT 8000 VCSH OVC017 12/10 Q1027 REDZ NOSIG RMK VCSH/SE A3036
07:00
M
11 °C 8 km 1,700 ft 070° 070° 4 kt METAR SKBO 071200Z 07004KT 8000 -DZ FEW005 OVC017 11/10 Q1027 NOSIG RMK A3033
06:00
M
11 °C 9 km 1,700 ft 040° 040° 4 kt METAR SKBO 071100Z 04004KT 9000 -DZ FEW005 OVC017 11/10 Q1026 NOSIG RMK A3031
05:28
M
11 °C 9 km 1,000 ft 030° 030° 4 kt METAR SKBO 071028Z 03004KT 9000 DZ FEW008 OVC010 11/10 Q1026 NOSIG RMK A3030
05:00
M
11 °C 9 km 2,000 ft 070° 070° 3 kt METAR SKBO 071000Z 07003KT 9000 -DZ FEW005 SCT010 BKN020 11/10 Q1025 NOSIG RMK A3029
04:00
V
11 °C 8 km - 320° 320° 3 kt METAR SKBO 070900Z 32003KT 290V080 8000 -RA FEW010 SCT020 11/11 Q1025 NOSIG RMK A3028
03:00
V
11 °C 8 km 3,000 ft Var Var 2 kt METAR SKBO 070800Z VRB02KT 8000 -RA FEW015 BKN030 11/11 Q1025 NOSIG RMK A3027
02:00
V
12 °C 8 km 3,000 ft 220° 220° 3 kt METAR SKBO 070700Z 22003KT 8000 -RA FEW010 BKN030 12/11 Q1025 NOSIG RMK A3029
01:00
M
12 °C 7 km 7,000 ft 260° 260° 3 kt METAR SKBO 070600Z 26003KT 7000 -DZ SCT005 BKN070 12/11 Q1026 NOSIG RMK A3029
00:00
M
12 °C 7 km 7,000 ft 290° 290° 6 kt METAR SKBO 070500Z 29006KT 7000 -DZ SCT005 BKN070 12/11 Q1026 RERA NOSIG RMK A3031

December 6, 2022

Time Code Weather Temp. Visibility Ceiling Wind METAR/SPECI
23:00
I
12 °C 6 km 600 ft 290° 290° 5 kt METAR SKBO 070400Z 29005KT 6000 -RA BKN006 12/11 Q1027 NOSIG RMK A3032
22:00
M
12 °C 5 km 7,000 ft 300° 300° 5 kt METAR SKBO 070300Z 30005KT 5000 RA SCT010 BKN070 12/12 Q1026 NOSIG RMK A3032
21:31
M
12 °C 5 km 7,000 ft 300° 300° 6 kt METAR SKBO 070231Z 30006KT 5000 RA SCT010 BKN070 12/12 Q1026 NOSIG RMK A3032
21:00
M
13 °C 9 km 2,000 ft 250° 250° 4 kt METAR SKBO 070200Z 25004KT 170V320 9000 VCSH SCT010TCU BKN020 13/11 Q1026 TEMPO FM0230 RA RMK TCU/NE A3031
20:00
M
13 °C 9 km 2,000 ft 270° 270° 6 kt METAR SKBO 070100Z 27006KT 190V290 9000 VCSH SCT010 BKN020 13/11 Q1025 NOSIG RMK A3028
19:00
M
13 °C 9 km 1,500 ft 260° 260° 6 kt METAR SKBO 070000Z 26006KT 210V290 9000 -RA FEW010TCU BKN015 13/12 Q1024 NOSIG RMK TCU/SE A3026
18:00
V
14 °C 10 km+ 8,000 ft 250° 250° 6 kt METAR SKBO 062300Z 25006KT 9999 VCSH SCT017CB BKN080 14/11 Q1023 NOSIG RMK CB VCSH/NE A3023
17:00
V
15 °C 10 km+ 8,000 ft 250° 250° 7 kt METAR SKBO 062200Z 25007KT 9999 VCSH SCT017CB BKN080 15/11 Q1023 RETS NOSIG RMK CB VCSH/NE A3021
16:00
V
15 °C 9 km 8,000 ft 260° 260° 8 kt METAR SKBO 062100Z 26008KT 9000 TS SCT015CB BKN080 15/12 Q1023 NOSIG RMK CB VCSH/SE A3021
15:00
V
15 °C 9 km 8,000 ft 310° 310° 7 kt METAR SKBO 062000Z 31007KT 9000 -RA SCT017TCU BKN080 15/12 Q1023 RETSRA NOSIG RMK A3021
14:00
M
14 °C 6 km 7,000 ft 020° 020° 6 kt METAR SKBO 061900Z 02006KT 6000 -TSRA SCT015CB BKN070 14/12 Q1024 NOSIG RMK CB/NW A3022
13:00
V
16 °C 8 km 8,000 ft 230° 230° 10 kt METAR SKBO 061800Z 23010KT 8000 SCT017TCU BKN080 16/11 Q1024 NOSIG RMK TCU VCSH/N A3025
12:00
M
18 °C 10 km+ 2,000 ft 280° 280° 8 kt METAR SKBO 061700Z 28008KT 9999 VCSH BKN020 18/10 Q1025 TEMPO DZ RMK VCSH NE/S A3027
11:00
V
18 °C 10 km+ - 280° 280° 4 kt METAR SKBO 061600Z 28004KT 9999 SCT020 18/10 Q1026 NOSIG RMK A3030
10:00
V
16 °C 10 km+ - 350° 350° 4 kt METAR SKBO 061500Z 35004KT 9999 SCT020 16/10 Q1026 NOSIG RMK A3032
09:00
I
14 °C 1.6 km - 320° 320° 3 kt METAR SKBO 061400Z AUTO 32003KT 270V020 9000 1600 FEW004/// 14/10 Q1026
08:00
M
12 °C 5 km 1,700 ft Var Var 2 kt METAR SKBO 061300Z VRB02KT 5000 BR BKN017 12/10 Q1026 NOSIG RMK A3032
07:00
M
10 °C 5 km 1,500 ft 290° 290° 4 kt METAR SKBO 061200Z 29004KT 5000 BR BKN015 SCT080 10/09 Q1026 NOSIG RMK A3030
06:00
M
8 °C 8 km 1,500 ft Var Var 2 kt METAR SKBO 061100Z VRB02KT 8000 VCFG BKN015 SCT070 08/08 Q1025 NOSIG RMK VCFG/W A3028
05:31
V
8 °C 10 km+ - Var Var 2 kt METAR SKBO 061031Z VRB02KT 9999 MIFG SCT015 SCT070 08/08 Q1025 NOSIG RMK A3028
05:00
V
8 °C 10 km+ - 280° 280° 4 kt METAR SKBO 061000Z 28004KT 280V350 9999 MIFG SCT010 SCT070 08/08 Q1024 NOSIG RMK A3026
04:00
V
9 °C 10 km+ - Var Var 2 kt METAR SKBO 060900Z VRB02KT 9999 MIFG FEW010 09/09 Q1024 NOSIG RMK A3024
03:00
V
10 °C 10 km+ 7,000 ft 280° 280° 5 kt METAR SKBO 060800Z 28005KT 9999 FEW017 BKN070 10/10 Q1024 NOSIG RMK A3024
02:00
V
9 °C 10 km+ 7,000 ft Var Var 2 kt METAR SKBO 060700Z VRB02KT 9999 FEW010 BKN070 09/08 Q1024 NOSIG RMK A3025
01:00
I
9 °C 1.9 km - Var Var 2 kt METAR SKBO 060600Z AUTO VRB02KT 7000 1900 FEW014/// 09/08 Q1025
00:00
V
9 °C 10 km+ - 320° 320° 4 kt METAR SKBO 060500Z 32004KT 9999 SCT015 SCT070 09/09 Q1025 NOSIG RMK A3028

December 5, 2022

Time Code Weather Temp. Visibility Ceiling Wind METAR/SPECI
23:00
V
12 °C 10 km+ - 260° 260° 3 kt METAR SKBO 060400Z 26003KT 9999 FEW015 SCT070 12/10 Q1026 NOSIG RMK A3029
22:00
V
12 °C 10 km+ 7,000 ft Var Var 2 kt METAR SKBO 060300Z VRB02KT 9999 FEW017 BKN070 12/10 Q1026 NOSIG RMK A3030
21:00
V
12 °C 10 km+ - 280° 280° 4 kt METAR SKBO 060200Z 28004KT 9999 SCT017 12/10 Q1025 NOSIG RMK A3029
20:00
V
13 °C 10 km+ - 310° 310° 5 kt METAR SKBO 060100Z 31005KT 9999 SCT017 13/10 Q1024 NOSIG RMK A3026
19:00
V
12 °C 10 km+ - 310° 310° 6 kt METAR SKBO 060000Z 31006KT 9999 SCT020 12/11 Q1024 NOSIG RMK A3024
18:00
V
14 °C 10 km+ - 270° 270° 9 kt METAR SKBO 052300Z 27009KT 9999 SCT017 14/11 Q1023 NOSIG RMK A3022
17:00
V
15 °C 10 km+ - 280° 280° 10 kt METAR SKBO 052200Z 28010KT 9999 SCT023 15/10 Q1022 NOSIG RMK A3019
16:00
V
17 °C 10 km+ - 270° 270° 9 kt METAR SKBO 052100Z 27009KT 240V300 9999 FEW030 17/10 Q1022 NOSIG RMK A3018
15:00
V
18 °C 10 km+ - 270° 270° 9 kt METAR SKBO 052000Z 27009KT 230V300 9999 SCT023 18/11 Q1022 NOSIG RMK A3018
14:00
V
17 °C 10 km+ 7,000 ft 280° 280° 12 kt METAR SKBO 051900Z 28012KT 240V310 9999 SCT023 BKN070 17/10 Q1022 NOSIG RMK A3020
13:00
V
16 °C 10 km+ 7,000 ft 290° 290° 10 kt METAR SKBO 051800Z 29010KT 270V330 9999 SCT017 BKN070 16/10 Q1023 NOSIG RMK A3023
12:00
V
16 °C 10 km+ 8,000 ft 310° 310° 11 kt METAR SKBO 051700Z 31011KT 9999 SCT017TCU BKN080 16/11 Q1024 NOSIG RMK TCU/NE A3026
11:00
M
16 °C 7 km 8,000 ft 320° 320° 6 kt METAR SKBO 051600Z 32006KT 7000 SCT017 BKN080 16/12 Q1025 NOSIG RMK HZ A3028
10:00
M
15 °C 6 km 8,000 ft 320° 320° 6 kt METAR SKBO 051500Z 32006KT 6000 SCT017 BKN080 15/11 Q1026 NOSIG RMK HZ A3030
09:00
M
15 °C 6 km 8,000 ft Var Var 2 kt METAR SKBO 051400Z VRB02KT 6000 SCT015 BKN080 15/11 Q1026 NOSIG RMK HZ A3031
08:00
M
12 °C 6 km 8,000 ft 340° 340° 5 kt METAR SKBO 051300Z 34005KT 6000 SCT015 BKN080 12/10 Q1026 NOSIG RMK HZ A3030
07:00
V
11 °C 8 km 8,000 ft Var Var 2 kt METAR SKBO 051200Z VRB02KT 8000 SCT015 BKN080 11/10 Q1024 NOSIG RMK HZ A3027
06:00
M
10 °C 10 km+ 2,500 ft Var 000° 0 kt METAR SKBO 051100Z 00000KT 9999 FEW012 BKN025 10/09 Q1024 NOSIG RMK A3025
05:32
V
8 °C 10 km+ - Var 000° 0 kt METAR SKBO 051032Z 00000KT 9999 FEW012 SCT025 08/08 Q1024 NOSIG RMK A3024
05:00
V
10 °C 10 km+ - 290° 290° 3 kt METAR SKBO 051000Z 29003KT 9999 FEW010 SCT070 10/09 Q1023 NOSIG RMK A3022

We and third parties follow your internet behavior on our website with cookies. If you continue, we assume you agree with our cookie policy.